Time;durP1;ratioP1;P1;durP2;ratioP2;P2;SDS_P1;SDS_P2;PMS_P1;PMS_P2;Temp;Humidity;BMP_temperature;BMP_pressure;BME280_temperature;BME280_humidity;BME280_pressure;Samples;Min_cycle;Max_cycle;Signal;HPM_P1;HPM_P2
2021/11/22 00:00:53;;;;;;;;;;;;;;;6.20;78.15;102260.16;5040725;28;19921;-66
2021/11/22 00:03:19;;;;;;;;;;;;;;;6.18;77.58;102260.13;5044713;28;19924;-67
2021/11/22 00:05:45;;;;;;;;;;;;;;;6.27;77.57;102261.31;5046886;28;19917;-66
2021/11/22 00:08:10;;;;;;;;;;;;;;;6.19;78.10;102258.41;5038024;28;19927;-65
2021/11/22 00:10:36;;;;;;;;;;;;;;;6.24;77.83;102269.91;5043577;28;19951;-66
2021/11/22 00:13:02;;;;;;;;;;;;;;;6.23;77.90;102274.22;5032044;28;19921;-67
2021/11/22 00:15:27;;;;;;;;;;;;;;;6.15;77.95;102275.66;5048579;28;19921;-66
2021/11/22 00:17:52;;;;;;;;;;;;;;;6.18;77.72;102283.63;5045149;28;19913;-66
2021/11/22 00:20:18;;;;;;;;;;;;;;;6.08;78.08;102285.78;5041179;28;20007;-66
2021/11/22 00:22:44;;;;;;;;;;;;;;;5.99;78.86;102286.31;5050917;28;19932;-66
2021/11/22 00:25:10;;;;;;;;;;;;;;;5.94;78.64;102287.81;5032592;28;19922;-66
2021/11/22 00:27:35;;;;;;;;;;;;;;;5.89;79.52;102297.16;5037402;28;19928;-66
2021/11/22 00:30:01;;;;;;;;;;;;;;;5.90;79.15;102291.09;5043848;28;19925;-66
2021/11/22 00:32:26;;;;;;;;;;;;;;;5.82;79.86;102293.41;5040200;28;19933;-66
2021/11/22 00:34:56;;;;;;;;;;;;;;;5.94;78.83;102293.94;5033913;28;20300;-66
2021/11/22 00:37:24;;;;;;;;;;;;;;;5.86;80.03;102300.56;5043666;28;19952;-66
2021/11/22 00:39:50;;;;;;;;;;;;;;;5.91;78.53;102309.44;5035524;28;20005;-67
2021/11/22 00:42:15;;;;;;;;;;;;;;;5.94;78.52;102301.75;5043590;28;19921;-66
2021/11/22 00:44:40;;;;;;;;;;;;;;;5.92;78.77;102310.34;5046395;28;19947;-67
2021/11/22 00:47:06;;;;;;;;;;;;;;;5.90;78.54;102312.91;5041376;28;20078;-66
2021/11/22 00:49:32;;;;;;;;;;;;;;;5.84;78.79;102317.84;5040182;28;19984;-66
2021/11/22 00:51:58;;;;;;;;;;;;;;;5.89;78.90;102329.34;5044923;28;19924;-65
2021/11/22 00:54:23;;;;;;;;;;;;;;;5.86;78.62;102332.75;5033415;28;19967;-66
2021/11/22 00:56:48;;;;;;;;;;;;;;;5.92;78.36;102333.84;5045421;28;19944;-66
2021/11/22 00:59:14;;;;;;;;;;;;;;;5.80;78.83;102331.59;5041980;28;19924;-66
2021/11/22 01:01:39;;;;;;;;;;;;;;;5.75;79.49;102334.00;5041080;28;20388;-67
2021/11/22 01:04:05;;;;;;;;;;;;;;;5.71;79.25;102329.50;5038625;28;19945;-67
2021/11/22 01:06:30;;;;;;;;;;;;;;;5.72;78.99;102339.09;5046215;28;19917;-66
2021/11/22 01:08:55;;;;;;;;;;;;;;;5.64;79.60;102341.38;5042019;28;19917;-65
2021/11/22 01:11:20;;;;;;;;;;;;;;;5.64;80.02;102343.09;5073161;28;20377;-67
2021/11/22 01:13:46;;;;;;;;;;;;;;;5.71;79.16;102350.38;5043307;28;19917;-65
2021/11/22 01:16:11;;;;;;;;;;;;;;;5.71;79.09;102355.59;5033461;28;19929;-66
2021/11/22 01:18:37;;;;;;;;;;;;;;;5.78;78.76;102352.38;5046786;28;19921;-66
2021/11/22 01:21:03;;;;;;;;;;;;;;;5.76;78.71;102354.03;5041193;28;20012;-69
2021/11/22 01:23:28;;;;;;;;;;;;;;;5.80;78.65;102358.59;5040341;28;19933;-66
2021/11/22 01:25:53;;;;;;;;;;;;;;;5.74;78.63;102360.03;5042888;28;20075;-66
2021/11/22 01:28:19;;;;;;;;;;;;;;;5.76;78.58;102358.38;5056355;28;19998;-65
2021/11/22 01:30:44;;;;;;;;;;;;;;;5.78;78.37;102368.03;5040481;28;19980;-67
2021/11/22 01:33:13;;;;;;;;;;;;;;;5.70;78.11;102360.72;5044475;28;19921;-66
2021/11/22 01:35:38;;;;;;;;;;;;;;;5.71;78.57;102373.84;5033001;28;20016;-67
2021/11/22 01:38:04;;;;;;;;;;;;;;;5.65;78.47;102384.00;5042577;28;20329;-65
2021/11/22 01:40:29;;;;;;;;;;;;;;;5.62;78.17;102386.47;5045290;28;19925;-64
2021/11/22 01:42:55;;;;;;;;;;;;;;;5.63;77.75;102383.94;5034990;28;19913;-66
2021/11/22 01:45:22;;;;;;;;;;;;;;;5.51;78.57;102387.72;5051651;28;20357;-66
2021/11/22 01:47:48;;;;;;;;;;;;;;;5.44;78.68;102400.50;5039642;28;19941;-65
2021/11/22 01:50:14;;;;;;;;;;;;;;;5.40;78.20;102401.16;5037703;28;20400;-66
2021/11/22 01:52:40;;;;;;;;;;;;;;;5.55;77.03;102397.47;5034762;28;19927;-67
2021/11/22 01:55:07;;;;;;;;;;;;;;;5.55;76.54;102394.84;5034857;28;19917;-66
2021/11/22 01:57:32;;;;;;;;;;;;;;;5.52;76.79;102399.94;5040286;28;19916;-66
2021/11/22 01:59:58;;;;;;;;;;;;;;;5.42;76.67;102406.44;5040424;28;19979;-66
2021/11/22 02:02:23;;;;;;;;;;;;;;;5.38;76.68;102408.03;5045452;28;19992;-66
2021/11/22 02:04:48;;;;;;;;;;;;;;;5.43;76.25;102413.47;5045491;28;19925;-65
2021/11/22 02:07:13;;;;;;;;;;;;;;;5.51;75.47;102413.81;5036447;28;19937;-67
2021/11/22 02:09:38;;;;;;;;;;;;;;;5.43;75.35;102419.56;5040722;28;19943;-66
2021/11/22 02:12:05;;;;;;;;;;;;;;;5.42;75.40;102420.38;5042462;28;20056;-65
2021/11/22 02:14:30;;;;;;;;;;;;;;;5.38;76.04;102422.78;5041333;28;20494;-65
2021/11/22 02:16:56;;;;;;;;;;;;;;;5.36;75.70;102422.72;5047236;28;19925;-66
2021/11/22 02:19:21;;;;;;;;;;;;;;;5.35;75.79;102425.25;5038284;28;19921;-66
2021/11/22 02:21:46;;;;;;;;;;;;;;;5.43;74.96;102426.50;5038852;28;19960;-66
2021/11/22 02:24:12;;;;;;;;;;;;;;;5.43;74.29;102426.50;5037924;28;19976;-67
2021/11/22 02:26:37;;;;;;;;;;;;;;;5.47;74.09;102428.41;5039292;28;19917;-66
2021/11/22 02:29:03;;;;;;;;;;;;;;;5.31;75.93;102426.81;5031556;28;19941;-66
2021/11/22 02:31:29;;;;;;;;;;;;;;;5.29;74.83;102431.06;5039740;28;19917;-67
2021/11/22 02:33:55;;;;;;;;;;;;;;;5.35;74.62;102438.28;5042020;28;19917;-65
2021/11/22 02:36:20;;;;;;;;;;;;;;;5.30;74.39;102440.69;5056596;28;19924;-66
2021/11/22 02:38:45;;;;;;;;;;;;;;;5.36;74.01;102440.06;5041982;28;19935;-66
2021/11/22 02:41:11;;;;;;;;;;;;;;;5.37;74.16;102436.63;5045309;28;19924;-66
2021/11/22 02:43:38;;;;;;;;;;;;;;;5.26;74.63;102442.25;5039136;28;19922;-66
2021/11/22 02:46:04;;;;;;;;;;;;;;;5.26;74.52;102437.06;5038354;28;20341;-67
2021/11/22 02:48:29;;;;;;;;;;;;;;;5.17;74.98;102453.97;5043857;28;19917;-67
2021/11/22 02:50:55;;;;;;;;;;;;;;;5.25;74.34;102450.91;5042811;28;19932;-66
2021/11/22 02:53:20;;;;;;;;;;;;;;;5.19;74.61;102457.56;5039542;28;19948;-65
2021/11/22 02:55:45;;;;;;;;;;;;;;;5.22;74.25;102466.41;5058002;28;19917;-66
2021/11/22 02:58:11;;;;;;;;;;;;;;;5.18;74.49;102461.88;5037439;28;19980;-66
2021/11/22 03:00:36;;;;;;;;;;;;;;;5.18;74.19;102469.69;5052953;28;19944;-66
2021/11/22 03:03:02;;;;;;;;;;;;;;;5.23;73.86;102472.50;5045376;28;20307;-65
2021/11/22 03:05:28;;;;;;;;;;;;;;;5.30;73.58;102471.97;5027710;28;19955;-66
2021/11/22 03:07:55;;;;;;;;;;;;;;;5.22;74.10;102479.44;5033544;28;19952;-66
2021/11/22 03:10:21;;;;;;;;;;;;;;;5.23;74.33;102476.00;5037622;28;20055;-66
2021/11/22 03:12:47;;;;;;;;;;;;;;;5.24;73.82;102479.50;5049475;28;20236;-66
2021/11/22 03:15:15;;;;;;;;;;;;;;;5.22;73.81;102482.03;5044729;28;19924;-66
2021/11/22 03:17:41;;;;;;;;;;;;;;;5.22;73.74;102484.66;5040430;28;19927;-66
2021/11/22 03:20:07;;;;;;;;;;;;;;;5.11;74.55;102491.06;5037604;28;19916;-66
2021/11/22 03:22:33;;;;;;;;;;;;;;;5.02;74.92;102498.44;5050751;28;19917;-66
2021/11/22 03:24:58;;;;;;;;;;;;;;;5.03;74.88;102495.94;5044108;28;20019;-66
2021/11/22 03:27:24;;;;;;;;;;;;;;;4.94;75.53;102505.91;5039796;28;19926;-66
2021/11/22 03:29:49;;;;;;;;;;;;;;;4.93;75.29;102506.72;5030602;28;19952;-67
2021/11/22 03:32:14;;;;;;;;;;;;;;;5.01;74.87;102499.25;5041539;28;19944;-67
2021/11/22 03:34:40;;;;;;;;;;;;;;;4.91;75.18;102508.34;5043974;28;19952;-66
2021/11/22 03:37:05;;;;;;;;;;;;;;;4.82;76.48;102505.28;5032612;28;19967;-66
2021/11/22 03:39:32;;;;;;;;;;;;;;;4.87;75.56;102509.03;5034156;28;19936;-67
2021/11/22 03:42:00;;;;;;;;;;;;;;;4.95;75.04;102517.22;5044025;28;20313;-66
2021/11/22 03:44:25;;;;;;;;;;;;;;;4.92;75.01;102517.09;5033746;28;19928;-66
2021/11/22 03:46:52;;;;;;;;;;;;;;;4.94;74.75;102524.13;5035556;28;19918;-66
2021/11/22 03:49:18;;;;;;;;;;;;;;;5.00;74.55;102529.63;5035701;28;20000;-67
2021/11/22 03:51:44;;;;;;;;;;;;;;;4.93;74.65;102530.16;5028423;28;19920;-68
2021/11/22 03:54:10;;;;;;;;;;;;;;;4.91;75.01;102531.78;5038142;28;19922;-67
2021/11/22 03:56:36;;;;;;;;;;;;;;;4.85;75.55;102529.78;5049442;28;19925;-67
2021/11/22 03:59:01;;;;;;;;;;;;;;;4.85;74.99;102539.31;5041862;28;19917;-66
2021/11/22 04:01:26;;;;;;;;;;;;;;;4.83;75.28;102539.25;5044654;28;19928;-66
2021/11/22 04:03:52;;;;;;;;;;;;;;;4.79;75.31;102544.22;5052932;28;20319;-66
2021/11/22 04:06:17;;;;;;;;;;;;;;;4.77;75.26;102544.16;5041984;28;19921;-66
2021/11/22 04:08:43;;;;;;;;;;;;;;;4.84;75.19;102550.56;5038234;28;19985;-67
2021/11/22 04:11:09;;;;;;;;;;;;;;;4.83;75.26;102552.25;5052958;28;19944;-66
2021/11/22 04:13:34;;;;;;;;;;;;;;;4.81;75.00;102551.28;5047171;28;19921;-66
2021/11/22 04:16:00;;;;;;;;;;;;;;;4.80;74.96;102559.03;5043920;28;19913;-65
2021/11/22 04:18:25;;;;;;;;;;;;;;;4.84;74.30;102564.47;5040999;28;19920;-66
2021/11/22 04:20:50;;;;;;;;;;;;;;;4.75;75.49;102569.22;5040351;28;20383;-66
2021/11/22 04:23:16;;;;;;;;;;;;;;;4.80;74.89;102565.16;5047684;28;19955;-66
2021/11/22 04:25:41;;;;;;;;;;;;;;;4.85;74.42;102579.28;5034087;28;19921;-66
2021/11/22 04:28:07;;;;;;;;;;;;;;;4.88;74.58;102575.94;5055675;28;19924;-67
2021/11/22 04:30:33;;;;;;;;;;;;;;;4.94;74.35;102578.84;5051115;28;19920;-66
2021/11/22 04:32:59;;;;;;;;;;;;;;;4.97;73.99;102572.88;5044499;28;19927;-67
2021/11/22 04:35:25;;;;;;;;;;;;;;;4.99;74.03;102574.75;5035595;28;19922;-67
2021/11/22 04:37:50;;;;;;;;;;;;;;;4.94;73.96;102576.25;5039109;28;19932;-66
2021/11/22 04:40:16;;;;;;;;;;;;;;;4.97;73.75;102578.09;5054056;28;19924;-66
2021/11/22 04:42:45;;;;;;;;;;;;;;;4.89;74.18;102581.22;5059411;28;19917;-67
2021/11/22 04:45:11;;;;;;;;;;;;;;;4.95;74.09;102582.34;5042416;28;20015;-66
2021/11/22 04:47:36;;;;;;;;;;;;;;;4.94;74.26;102588.38;5031455;28;19918;-66
2021/11/22 04:50:02;;;;;;;;;;;;;;;4.89;74.13;102589.03;5044905;28;19917;-66
2021/11/22 04:52:27;;;;;;;;;;;;;;;4.93;74.19;102597.88;5043923;28;19953;-66
2021/11/22 04:54:52;;;;;;;;;;;;;;;4.86;75.64;102601.03;5045275;28;19922;-66
2021/11/22 04:57:18;;;;;;;;;;;;;;;4.87;75.13;102595.88;5044865;28;20016;-66
2021/11/22 04:59:43;;;;;;;;;;;;;;;4.93;74.73;102607.41;5045633;28;19924;-66
2021/11/22 05:02:09;;;;;;;;;;;;;;;4.96;74.42;102602.38;5040744;28;19952;-66
2021/11/22 05:04:38;;;;;;;;;;;;;;;4.94;74.86;102602.28;5045031;28;19925;-66
2021/11/22 05:07:04;;;;;;;;;;;;;;;4.92;74.44;102610.88;5043879;28;20397;-66
2021/11/22 05:09:29;;;;;;;;;;;;;;;4.95;74.42;102603.19;5037552;28;19933;-66
2021/11/22 05:11:55;;;;;;;;;;;;;;;4.96;74.51;102618.00;5042407;28;19993;-65
2021/11/22 05:14:20;;;;;;;;;;;;;;;4.91;74.65;102614.28;5039021;28;19976;-66
2021/11/22 05:16:45;;;;;;;;;;;;;;;4.75;75.95;102621.31;5031248;28;19917;-66
2021/11/22 05:19:12;;;;;;;;;;;;;;;4.71;76.19;102623.66;5041154;28;19924;-66
2021/11/22 05:21:37;;;;;;;;;;;;;;;4.79;75.38;102624.97;5038687;28;19924;-66
2021/11/22 05:24:03;;;;;;;;;;;;;;;4.72;75.83;102625.47;5039508;28;19917;-66
2021/11/22 05:26:31;;;;;;;;;;;;;;;4.76;75.78;102632.63;5055011;28;19921;-66
2021/11/22 05:29:01;;;;;;;;;;;;;;;4.66;77.21;102633.88;5056338;28;20013;-66
2021/11/22 05:31:27;;;;;;;;;;;;;;;4.61;76.65;102628.44;5045302;28;20331;-66
2021/11/22 05:33:53;;;;;;;;;;;;;;;4.67;76.09;102628.75;5045145;28;19955;-66
2021/11/22 05:36:18;;;;;;;;;;;;;;;4.72;75.99;102634.16;5037696;28;19921;-66
2021/11/22 05:38:44;;;;;;;;;;;;;;;4.66;77.00;102650.38;5042873;28;19926;-66
2021/11/22 05:41:09;;;;;;;;;;;;;;;4.69;76.14;102644.44;5038387;28;19918;-66
2021/11/22 05:43:37;;;;;;;;;;;;;;;4.80;75.88;102647.59;5037403;28;19928;-66
2021/11/22 05:46:03;;;;;;;;;;;;;;;4.72;76.01;102656.72;5041657;28;20012;-66
2021/11/22 05:48:29;;;;;;;;;;;;;;;4.62;76.25;102656.25;5032975;28;19984;-66
2021/11/22 05:50:55;;;;;;;;;;;;;;;4.68;76.13;102663.47;5039380;28;19929;-66
2021/11/22 05:53:21;;;;;;;;;;;;;;;4.72;75.71;102659.31;5040718;28;19925;-66
2021/11/22 05:55:50;;;;;;;;;;;;;;;4.66;77.24;102670.31;5037203;28;20012;-67
2021/11/22 05:58:16;;;;;;;;;;;;;;;4.58;77.02;102672.53;5042169;28;19976;-66
2021/11/22 06:00:41;;;;;;;;;;;;;;;4.63;76.82;102677.97;5036353;28;19917;-67
2021/11/22 06:03:06;;;;;;;;;;;;;;;4.57;76.62;102680.25;5040016;28;20377;-65
2021/11/22 06:05:32;;;;;;;;;;;;;;;4.53;77.57;102680.91;5041138;28;19924;-66
2021/11/22 06:07:58;;;;;;;;;;;;;;;4.49;76.88;102677.25;5033844;28;19931;-66
2021/11/22 06:10:23;;;;;;;;;;;;;;;4.45;77.81;102684.00;5040797;28;19921;-65
2021/11/22 06:12:48;;;;;;;;;;;;;;;4.40;78.75;102687.19;5036452;28;19980;-65
2021/11/22 06:15:14;;;;;;;;;;;;;;;4.35;78.47;102694.75;5042855;28;19921;-67
2021/11/22 06:17:39;;;;;;;;;;;;;;;4.32;78.86;102696.28;5033137;28;20020;-67
2021/11/22 06:20:05;;;;;;;;;;;;;;;4.23;80.12;102699.28;5035388;28;19921;-66
2021/11/22 06:22:30;;;;;;;;;;;;;;;4.20;80.01;102704.34;5027107;28;19921;-66
2021/11/22 06:24:55;;;;;;;;;;;;;;;4.16;80.50;102702.34;5042289;28;19960;-66
2021/11/22 06:27:21;;;;;;;;;;;;;;;4.19;80.47;102710.34;5035077;28;19925;-66
2021/11/22 06:29:47;;;;;;;;;;;;;;;4.19;79.70;102713.84;5038661;28;19921;-66
2021/11/22 06:32:12;;;;;;;;;;;;;;;4.19;80.33;102716.44;5037430;28;19974;-66
2021/11/22 06:34:39;;;;;;;;;;;;;;;4.21;79.41;102721.72;5072951;28;19925;-66
2021/11/22 06:37:04;;;;;;;;;;;;;;;4.21;79.75;102727.81;5046959;28;19981;-67
2021/11/22 06:39:29;;;;;;;;;;;;;;;4.16;80.50;102726.69;5038213;28;19925;-66
2021/11/22 06:41:55;;;;;;;;;;;;;;;4.16;80.33;102728.38;5040204;28;19929;-67
2021/11/22 06:44:21;;;;;;;;;;;;;;;4.17;79.48;102725.88;5032447;28;19917;-66
2021/11/22 06:46:48;;;;;;;;;;;;;;;4.15;80.75;102726.59;5034783;28;19971;-66
2021/11/22 06:49:13;;;;;;;;;;;;;;;4.13;79.99;102739.53;5042169;28;19917;-66
2021/11/22 06:51:39;;;;;;;;;;;;;;;4.08;80.26;102746.19;5041174;28;19936;-66
2021/11/22 06:54:04;;;;;;;;;;;;;;;4.09;80.57;102748.88;5042067;28;19964;-64
2021/11/22 06:56:29;;;;;;;;;;;;;;;4.19;79.71;102759.78;5041769;28;19928;-66
2021/11/22 06:58:54;;;;;;;;;;;;;;;4.18;79.72;102761.50;5043174;28;20004;-66
2021/11/22 07:01:20;;;;;;;;;;;;;;;4.19;79.52;102771.09;5037706;28;19936;-66
2021/11/22 07:03:45;;;;;;;;;;;;;;;4.29;79.96;102773.41;5042525;28;19968;-66
2021/11/22 07:06:10;;;;;;;;;;;;;;;4.30;79.19;102774.28;5045193;28;19916;-65
2021/11/22 07:08:35;;;;;;;;;;;;;;;4.29;79.21;102778.59;5039940;28;19933;-65
2021/11/22 07:11:01;;;;;;;;;;;;;;;4.38;79.63;102792.91;5042518;28;19921;-65
2021/11/22 07:13:26;;;;;;;;;;;;;;;4.39;79.37;102798.22;5042849;28;20327;-66
2021/11/22 07:15:52;;;;;;;;;;;;;;;4.36;79.27;102803.25;5038825;28;20008;-66
2021/11/22 07:18:17;;;;;;;;;;;;;;;4.37;79.96;102798.97;5040728;28;19935;-65
2021/11/22 07:20:46;;;;;;;;;;;;;;;4.35;80.48;102803.16;5070332;28;19932;-65
2021/11/22 07:23:11;;;;;;;;;;;;;;;4.37;79.57;102810.25;5039515;28;20012;-65
2021/11/22 07:25:37;;;;;;;;;;;;;;;4.46;79.41;102815.97;5041573;28;19921;-66
2021/11/22 07:28:02;;;;;;;;;;;;;;;4.45;79.08;102816.78;5041171;28;19924;-66
2021/11/22 07:30:27;;;;;;;;;;;;;;;4.43;79.51;102817.50;5043046;28;19948;-63
2021/11/22 07:32:54;;;;;;;;;;;;;;;4.43;79.88;102828.81;5039492;28;20260;-66
2021/11/22 07:35:23;;;;;;;;;;;;;;;4.50;79.89;102827.44;5047967;28;19921;-66
2021/11/22 07:37:49;;;;;;;;;;;;;;;4.58;78.94;102833.06;5046659;28;20003;-67
2021/11/22 07:40:15;;;;;;;;;;;;;;;4.56;79.37;102838.19;5045098;28;19925;-66
2021/11/22 07:42:40;;;;;;;;;;;;;;;4.57;78.95;102841.69;5046893;28;19921;-65
2021/11/22 07:45:05;;;;;;;;;;;;;;;4.62;79.97;102841.13;5039070;28;20344;-66
2021/11/22 07:47:31;;;;;;;;;;;;;;;4.64;79.63;102844.72;5045086;28;19923;-66
2021/11/22 07:49:56;;;;;;;;;;;;;;;4.71;78.73;102843.34;5047834;28;20426;-66
2021/11/22 07:52:23;;;;;;;;;;;;;;;4.83;79.74;102848.31;5044988;28;19932;-66
2021/11/22 07:54:48;;;;;;;;;;;;;;;4.94;79.52;102851.50;5053594;28;19925;-67
2021/11/22 07:57:13;;;;;;;;;;;;;;;5.02;78.71;102853.69;5043207;28;19921;-67
2021/11/22 07:59:38;;;;;;;;;;;;;;;4.92;78.21;102860.94;5034907;28;20345;-67
2021/11/22 08:02:04;;;;;;;;;;;;;;;4.84;78.96;102856.22;5042239;28;19994;-66
2021/11/22 08:04:29;;;;;;;;;;;;;;;4.94;77.99;102862.81;5057827;28;19929;-67
2021/11/22 08:07:01;;;;;;;;;;;;;;;4.93;77.66;102866.22;5031124;28;19925;-66
2021/11/22 08:09:31;;;;;;;;;;;;;;;4.86;78.72;102870.22;5034039;28;19988;-66
2021/11/22 08:12:25;;;;;;;;;;;;;;;4.84;78.73;102879.66;5051492;28;19921;-66
2021/11/22 08:14:51;;;;;;;;;;;;;;;4.87;79.21;102877.22;5057328;28;19921;-67
2021/11/22 08:17:16;;;;;;;;;;;;;;;4.91;78.66;102885.19;5054022;28;19917;-66
2021/11/22 08:19:41;;;;;;;;;;;;;;;4.92;78.75;102890.50;5040188;28;19925;-67
2021/11/22 08:22:07;;;;;;;;;;;;;;;4.89;79.54;102882.50;5035681;28;19921;-67
2021/11/22 08:24:32;;;;;;;;;;;;;;;4.95;78.73;102877.63;5054335;28;19996;-67
2021/11/22 08:26:58;;;;;;;;;;;;;;;5.05;78.07;102885.13;5041712;28;20265;-67
2021/11/22 08:29:23;;;;;;;;;;;;;;;5.13;79.05;102892.47;5045076;28;19916;-67
2021/11/22 08:31:48;;;;;;;;;;;;;;;5.22;77.59;102890.34;5040150;28;20339;-67
2021/11/22 08:34:14;;;;;;;;;;;;;;;5.33;77.27;102897.03;5027104;28;19921;-67
2021/11/22 08:36:39;;;;;;;;;;;;;;;5.52;76.94;102895.38;5035922;28;20008;-66
2021/11/22 08:39:05;;;;;;;;;;;;;;;5.74;76.53;102895.66;5035162;28;19929;-67
2021/11/22 08:41:30;;;;;;;;;;;;;;;5.80;75.34;102901.19;5047644;28;19916;-67
2021/11/22 08:43:56;;;;;;;;;;;;;;;5.92;74.98;102905.25;5034172;28;19913;-66
2021/11/22 08:46:21;;;;;;;;;;;;;;;6.01;74.41;102905.72;5038387;28;20007;-67
2021/11/22 08:48:46;;;;;;;;;;;;;;;5.99;74.28;102905.66;5040665;28;19928;-67
2021/11/22 08:51:12;;;;;;;;;;;;;;;6.08;74.10;102910.44;5060570;28;19929;-67
2021/11/22 08:53:37;;;;;;;;;;;;;;;6.22;74.95;102909.41;5044606;28;19928;-66
2021/11/22 08:56:02;;;;;;;;;;;;;;;6.20;75.35;102916.28;5042835;28;20337;-67
2021/11/22 08:58:28;;;;;;;;;;;;;;;6.28;74.48;102915.75;5041515;28;19960;-68
2021/11/22 09:00:53;;;;;;;;;;;;;;;6.39;72.25;102912.84;5045017;28;19921;-68
2021/11/22 09:03:18;;;;;;;;;;;;;;;6.57;71.34;102925.00;5041882;28;20868;-67
2021/11/22 09:05:43;;;;;;;;;;;;;;;6.71;71.48;102939.63;5035149;28;19936;-66
2021/11/22 09:08:09;;;;;;;;;;;;;;;6.78;71.28;102939.06;5043145;28;20339;-66
2021/11/22 09:10:35;;;;;;;;;;;;;;;6.67;71.49;102937.66;5040328;28;19925;-69
2021/11/22 09:13:00;;;;;;;;;;;;;;;6.64;71.93;102943.66;5047139;28;19916;-69
2021/11/22 09:15:25;;;;;;;;;;;;;;;6.61;71.65;102943.50;5040403;28;19921;-69
2021/11/22 09:17:51;;;;;;;;;;;;;;;6.63;72.30;102935.72;5041113;28;19917;-69
2021/11/22 09:20:16;;;;;;;;;;;;;;;6.63;71.83;102944.50;5041165;28;19976;-69
2021/11/22 09:22:41;;;;;;;;;;;;;;;6.67;72.51;102942.00;5036260;28;19925;-68
2021/11/22 09:25:07;;;;;;;;;;;;;;;6.69;71.23;102949.13;5042751;28;19916;-69
2021/11/22 09:27:33;;;;;;;;;;;;;;;6.75;70.56;102951.13;5030475;28;19948;-70
2021/11/22 09:29:58;;;;;;;;;;;;;;;6.77;72.22;102952.97;5026912;28;19983;-70
2021/11/22 09:32:23;;;;;;;;;;;;;;;6.88;70.59;102965.66;5037344;28;19927;-70
2021/11/22 09:34:49;;;;;;;;;;;;;;;6.95;70.24;102962.50;5045047;28;19921;-70
2021/11/22 09:37:14;;;;;;;;;;;;;;;6.93;70.24;102970.28;5031204;28;19913;-69
2021/11/22 09:39:40;;;;;;;;;;;;;;;6.94;71.66;102973.81;5034251;28;19920;-69
2021/11/22 09:42:05;;;;;;;;;;;;;;;7.04;69.83;102965.56;5037656;28;19925;-69
2021/11/22 09:44:30;;;;;;;;;;;;;;;7.06;71.12;102966.53;5030968;28;19925;-68
2021/11/22 09:46:56;;;;;;;;;;;;;;;7.12;70.59;102972.03;5033909;28;20026;-70
2021/11/22 09:49:21;;;;;;;;;;;;;;;7.14;70.50;102972.09;5042815;28;19932;-69
2021/11/22 09:51:47;;;;;;;;;;;;;;;7.18;71.22;102976.66;5027616;28;19921;-69
2021/11/22 09:54:12;;;;;;;;;;;;;;;7.22;71.51;102982.09;5036374;28;19921;-70
2021/11/22 09:56:38;;;;;;;;;;;;;;;7.24;70.21;102987.41;5044285;28;19920;-70
2021/11/22 09:59:04;;;;;;;;;;;;;;;7.23;70.42;102980.38;5041437;28;19916;-70
2021/11/22 10:01:34;;;;;;;;;;;;;;;7.26;71.07;102982.22;5029908;28;19918;-70
2021/11/22 10:04:03;;;;;;;;;;;;;;;7.23;70.67;102986.50;5025427;28;19913;-70
2021/11/22 10:06:48;;;;;;;;;;;;;;;7.25;71.72;102985.69;5060986;28;19920;-70
2021/11/22 10:09:35;;;;;;;;;;;;;;;7.29;69.87;102990.22;5035825;28;19984;-69
2021/11/22 10:12:01;;;;;;;;;;;;;;;7.32;70.80;102985.16;5044166;28;19925;-70
2021/11/22 10:14:28;;;;;;;;;;;;;;;7.32;70.35;102991.25;5039267;28;19923;-70
2021/11/22 10:16:53;;;;;;;;;;;;;;;7.34;70.96;102994.84;5032452;28;19940;-71
2021/11/22 10:19:20;;;;;;;;;;;;;;;7.33;70.08;102987.81;5030403;28;19917;-70
2021/11/22 10:21:45;;;;;;;;;;;;;;;7.33;70.57;102987.81;5025462;28;19944;-70
2021/11/22 10:24:11;;;;;;;;;;;;;;;7.37;69.79;102991.47;5035742;28;19917;-70
2021/11/22 10:26:41;;;;;;;;;;;;;;;7.40;69.93;102992.50;5038666;28;19928;-68
2021/11/22 10:29:09;;;;;;;;;;;;;;;7.38;69.43;102993.25;5038735;28;19970;-71
2021/11/22 10:31:36;;;;;;;;;;;;;;;7.42;70.15;102988.22;5042731;28;19988;-70
2021/11/22 10:34:02;;;;;;;;;;;;;;;7.46;71.14;102994.50;5039790;28;19993;-71
2021/11/22 10:36:36;;;;;;;;;;;;;;;7.47;70.55;102995.41;5025639;28;19932;-70
2021/11/22 10:39:03;;;;;;;;;;;;;;;7.48;70.69;102990.22;5038343;28;19928;-68
2021/11/22 10:41:30;;;;;;;;;;;;;;;7.48;69.96;102991.97;5042739;28;19921;-68
2021/11/22 10:43:59;;;;;;;;;;;;;;;7.49;69.71;102989.41;5028954;28;19919;-67
2021/11/22 10:46:29;;;;;;;;;;;;;;;7.51;69.85;102999.97;5035639;28;19948;-67
2021/11/22 10:49:15;;;;;;;;;;;;;;;7.48;68.93;102997.19;5024304;28;20276;-68
2021/11/22 10:51:46;;;;;;;;;;;;;;;7.56;70.32;102994.09;5037480;28;19997;-68
2021/11/22 10:54:12;;;;;;;;;;;;;;;7.56;69.54;102991.50;5038115;28;19917;-67
2021/11/22 10:56:39;;;;;;;;;;;;;;;7.55;68.18;103001.88;5043621;28;19941;-67
2021/11/22 10:59:06;;;;;;;;;;;;;;;7.57;69.48;103001.13;5031330;28;19991;-68
2021/11/22 11:01:47;;;;;;;;;;;;;;;7.62;67.73;102993.50;5029049;28;19912;-67
2021/11/22 11:04:17;;;;;;;;;;;;;;;7.65;67.96;102995.34;5044128;28;19921;-68
2021/11/22 11:06:45;;;;;;;;;;;;;;;7.83;67.73;102998.78;5026640;28;19971;-68
2021/11/22 11:09:15;;;;;;;;;;;;;;;7.76;66.94;103002.84;5030169;28;19944;-68
2021/11/22 11:11:41;;;;;;;;;;;;;;;7.84;65.86;103005.78;5028518;28;19921;-69
2021/11/22 11:14:11;;;;;;;;;;;;;;;7.78;66.17;103006.41;5031074;28;19935;-67
2021/11/22 11:16:39;;;;;;;;;;;;;;;7.78;67.29;103001.19;5046060;28;19923;-68
2021/11/22 11:19:06;;;;;;;;;;;;;;;7.80;67.75;103004.75;5046053;28;19967;-68
2021/11/22 11:21:33;;;;;;;;;;;;;;;7.78;67.15;103006.41;5044325;28;19917;-67
2021/11/22 11:23:59;;;;;;;;;;;;;;;7.78;66.61;103005.53;5049716;28;20331;-67
2021/11/22 11:26:25;;;;;;;;;;;;;;;7.79;65.99;103012.56;5035845;28;19921;-67
2021/11/22 11:28:51;;;;;;;;;;;;;;;7.79;65.41;103017.78;5039461;28;19924;-67
2021/11/22 11:31:16;;;;;;;;;;;;;;;7.81;66.57;103006.56;5043750;28;19997;-67
2021/11/22 11:33:41;;;;;;;;;;;;;;;7.84;66.01;103010.13;5048262;28;19921;-67
2021/11/22 11:36:32;;;;;;;;;;;;;;;7.84;65.36;103005.78;5044216;28;19924;-67
2021/11/22 11:39:16;;;;;;;;;;;;;;;7.89;66.34;103006.91;5035696;28;19919;-67
2021/11/22 11:42:00;;;;;;;;;;;;;;;7.89;64.84;103009.50;5042821;28;20459;-67
2021/11/22 11:44:34;;;;;;;;;;;;;;;7.95;64.62;103014.13;5039185;28;19932;-68
2021/11/22 11:47:06;;;;;;;;;;;;;;;7.95;64.19;103007.16;5037686;28;19917;-68
2021/11/22 11:49:35;;;;;;;;;;;;;;;7.92;64.44;103007.03;5046555;28;19914;-69
2021/11/22 11:52:19;;;;;;;;;;;;;;;7.97;65.58;103002.00;5040890;28;19921;-68
2021/11/22 11:54:45;;;;;;;;;;;;;;;8.00;63.69;103005.63;5043078;28;20039;-67
2021/11/22 11:57:10;;;;;;;;;;;;;;;8.03;64.19;103011.84;5043896;28;20370;-68
2021/11/22 11:59:40;;;;;;;;;;;;;;;8.06;65.03;103007.63;5033032;28;19933;-67
2021/11/22 12:02:25;;;;;;;;;;;;;;;8.05;64.36;103005.81;5047041;28;19935;-68
2021/11/22 12:04:57;;;;;;;;;;;;;;;8.04;65.24;103005.78;5046777;28;19924;-67
2021/11/22 12:07:24;;;;;;;;;;;;;;;8.02;65.98;103005.72;5032311;28;19920;-66
2021/11/22 12:10:05;;;;;;;;;;;;;;;8.01;65.16;103003.91;5038996;28;19921;-64
2021/11/22 12:12:34;;;;;;;;;;;;;;;8.04;65.50;102997.94;5044001;28;19997;-66
2021/11/22 12:15:01;;;;;;;;;;;;;;;8.05;66.94;103000.59;5046066;28;19913;-66
2021/11/22 12:17:35;;;;;;;;;;;;;;;8.10;65.83;103004.31;5040849;28;19917;-67
2021/11/22 12:20:07;;;;;;;;;;;;;;;8.13;64.95;103001.84;5045130;28;19931;-67
2021/11/22 12:22:39;;;;;;;;;;;;;;;8.17;66.01;102995.88;5041151;28;19980;-66
2021/11/22 12:25:06;;;;;;;;;;;;;;;8.15;65.74;102992.31;5033151;28;19917;-66
2021/11/22 12:27:36;;;;;;;;;;;;;;;8.17;65.67;103001.13;5038587;28;19931;-67
2021/11/22 12:30:21;;;;;;;;;;;;;;;8.22;66.69;103006.56;5041498;28;20345;-67
2021/11/22 12:32:46;;;;;;;;;;;;;;;8.29;64.38;102992.00;5041516;28;19936;-67
2021/11/22 12:35:12;;;;;;;;;;;;;;;8.39;62.61;102996.78;5043317;28;19922;-67
2021/11/22 12:37:37;;;;;;;;;;;;;;;8.40;63.89;102990.72;5043613;28;19963;-67
2021/11/22 12:40:16;;;;;;;;;;;;;;;8.35;64.72;102989.63;5042288;28;19925;-67
2021/11/22 12:42:45;;;;;;;;;;;;;;;8.34;64.86;102996.59;5038605;28;19924;-67
2021/11/22 12:45:10;;;;;;;;;;;;;;;8.43;63.52;102990.91;5043498;28;19932;-66